sensor_id;sensor_type;location;lat;lon;timestamp;temperature;humidity
15184;DHT22;7693;49.266;7.104;2023-07-13T00:01:30;17.50;93.20
15184;DHT22;7693;49.266;7.104;2023-07-13T00:03:57;17.40;93.70
15184;DHT22;7693;49.266;7.104;2023-07-13T00:06:23;17.40;93.50
15184;DHT22;7693;49.266;7.104;2023-07-13T00:08:48;17.40;93.60
15184;DHT22;7693;49.266;7.104;2023-07-13T00:11:15;17.30;93.50
15184;DHT22;7693;49.266;7.104;2023-07-13T00:13:42;17.30;93.50
15184;DHT22;7693;49.266;7.104;2023-07-13T00:16:09;17.20;93.60
15184;DHT22;7693;49.266;7.104;2023-07-13T00:18:35;17.20;93.70
15184;DHT22;7693;49.266;7.104;2023-07-13T00:21:00;17.10;93.80
15184;DHT22;7693;49.266;7.104;2023-07-13T00:23:38;17.00;93.90
15184;DHT22;7693;49.266;7.104;2023-07-13T00:26:05;17.00;94.00
15184;DHT22;7693;49.266;7.104;2023-07-13T00:28:32;17.00;94.10
15184;DHT22;7693;49.266;7.104;2023-07-13T00:30:58;16.90;94.20
15184;DHT22;7693;49.266;7.104;2023-07-13T00:33:23;16.90;94.20
15184;DHT22;7693;49.266;7.104;2023-07-13T00:35:50;16.80;94.20
15184;DHT22;7693;49.266;7.104;2023-07-13T00:38:15;16.80;94.40
15184;DHT22;7693;49.266;7.104;2023-07-13T00:40:41;16.80;94.40
15184;DHT22;7693;49.266;7.104;2023-07-13T00:43:18;16.80;94.40
15184;DHT22;7693;49.266;7.104;2023-07-13T00:48:17;16.70;94.60
15184;DHT22;7693;49.266;7.104;2023-07-13T00:50:45;16.70;94.90
15184;DHT22;7693;49.266;7.104;2023-07-13T00:53:12;16.70;94.90
15184;DHT22;7693;49.266;7.104;2023-07-13T00:55:39;16.70;94.90
15184;DHT22;7693;49.266;7.104;2023-07-13T00:58:05;16.70;95.10
15184;DHT22;7693;49.266;7.104;2023-07-13T01:00:34;16.60;94.90
15184;DHT22;7693;49.266;7.104;2023-07-13T01:03:00;16.60;95.40
15184;DHT22;7693;49.266;7.104;2023-07-13T01:05:30;16.60;95.10
15184;DHT22;7693;49.266;7.104;2023-07-13T01:07:57;16.60;95.40
15184;DHT22;7693;49.266;7.104;2023-07-13T01:10:26;16.50;95.30
15184;DHT22;7693;49.266;7.104;2023-07-13T01:12:53;16.50;95.30
15184;DHT22;7693;49.266;7.104;2023-07-13T01:18:00;16.40;95.50
15184;DHT22;7693;49.266;7.104;2023-07-13T01:20:26;16.40;95.50
15184;DHT22;7693;49.266;7.104;2023-07-13T01:22:52;16.40;95.60
15184;DHT22;7693;49.266;7.104;2023-07-13T01:25:18;16.30;95.70
15184;DHT22;7693;49.266;7.104;2023-07-13T01:27:44;16.30;95.80
15184;DHT22;7693;49.266;7.104;2023-07-13T01:30:10;16.30;95.90
15184;DHT22;7693;49.266;7.104;2023-07-13T01:32:36;16.20;95.90
15184;DHT22;7693;49.266;7.104;2023-07-13T01:35:02;16.20;96.00
15184;DHT22;7693;49.266;7.104;2023-07-13T01:37:27;16.20;96.10
15184;DHT22;7693;49.266;7.104;2023-07-13T01:40:02;16.10;96.20
15184;DHT22;7693;49.266;7.104;2023-07-13T01:42:28;16.10;96.60
15184;DHT22;7693;49.266;7.104;2023-07-13T01:44:54;16.10;96.40
15184;DHT22;7693;49.266;7.104;2023-07-13T01:47:20;16.10;96.50
15184;DHT22;7693;49.266;7.104;2023-07-13T01:49:45;16.00;96.50
15184;DHT22;7693;49.266;7.104;2023-07-13T01:52:12;16.00;96.50
15184;DHT22;7693;49.266;7.104;2023-07-13T01:54:38;15.90;96.50
15184;DHT22;7693;49.266;7.104;2023-07-13T01:57:04;15.90;96.80
15184;DHT22;7693;49.266;7.104;2023-07-13T01:59:29;15.80;96.90
15184;DHT22;7693;49.266;7.104;2023-07-13T02:01:55;15.80;96.90
15184;DHT22;7693;49.266;7.104;2023-07-13T02:04:24;15.80;97.00
15184;DHT22;7693;49.266;7.104;2023-07-13T02:06:49;15.80;97.20
15184;DHT22;7693;49.266;7.104;2023-07-13T02:09:15;15.80;97.10
15184;DHT22;7693;49.266;7.104;2023-07-13T02:11:40;15.70;97.20
15184;DHT22;7693;49.266;7.104;2023-07-13T02:14:06;15.70;97.30
15184;DHT22;7693;49.266;7.104;2023-07-13T02:16:31;15.70;97.30
15184;DHT22;7693;49.266;7.104;2023-07-13T02:18:57;15.70;97.40
15184;DHT22;7693;49.266;7.104;2023-07-13T02:21:23;15.60;97.50
15184;DHT22;7693;49.266;7.104;2023-07-13T02:23:49;15.60;97.60
15184;DHT22;7693;49.266;7.104;2023-07-13T02:26:15;15.60;97.60
15184;DHT22;7693;49.266;7.104;2023-07-13T02:28:41;15.60;97.70
15184;DHT22;7693;49.266;7.104;2023-07-13T02:31:09;15.60;97.80
15184;DHT22;7693;49.266;7.104;2023-07-13T02:33:35;15.50;97.70
15184;DHT22;7693;49.266;7.104;2023-07-13T02:36:01;15.40;97.90
15184;DHT22;7693;49.266;7.104;2023-07-13T02:38:26;15.50;98.10
15184;DHT22;7693;49.266;7.104;2023-07-13T02:40:53;15.50;98.20
15184;DHT22;7693;49.266;7.104;2023-07-13T02:43:18;15.50;98.30
15184;DHT22;7693;49.266;7.104;2023-07-13T02:45:45;15.60;98.40
15184;DHT22;7693;49.266;7.104;2023-07-13T02:48:10;15.60;98.50
15184;DHT22;7693;49.266;7.104;2023-07-13T02:50:36;15.60;98.50
15184;DHT22;7693;49.266;7.104;2023-07-13T02:53:01;15.60;98.60
15184;DHT22;7693;49.266;7.104;2023-07-13T02:55:27;15.60;98.70
15184;DHT22;7693;49.266;7.104;2023-07-13T02:57:53;15.60;98.70
15184;DHT22;7693;49.266;7.104;2023-07-13T03:00:19;15.60;98.80
15184;DHT22;7693;49.266;7.104;2023-07-13T03:02:45;15.60;98.80
15184;DHT22;7693;49.266;7.104;2023-07-13T03:05:11;15.50;98.80
15184;DHT22;7693;49.266;7.104;2023-07-13T03:07:38;15.60;99.00
15184;DHT22;7693;49.266;7.104;2023-07-13T03:10:04;15.60;99.10
15184;DHT22;7693;49.266;7.104;2023-07-13T03:12:30;15.60;99.10
15184;DHT22;7693;49.266;7.104;2023-07-13T03:14:58;15.60;99.20
15184;DHT22;7693;49.266;7.104;2023-07-13T03:17:24;15.50;99.20
15184;DHT22;7693;49.266;7.104;2023-07-13T03:19:49;15.50;99.20
15184;DHT22;7693;49.266;7.104;2023-07-13T03:22:19;15.50;99.30
15184;DHT22;7693;49.266;7.104;2023-07-13T03:24:45;15.50;99.80
15184;DHT22;7693;49.266;7.104;2023-07-13T03:27:11;15.50;99.40
15184;DHT22;7693;49.266;7.104;2023-07-13T03:29:37;15.50;99.40
15184;DHT22;7693;49.266;7.104;2023-07-13T03:32:03;15.40;99.40
15184;DHT22;7693;49.266;7.104;2023-07-13T03:34:30;15.40;99.60
15184;DHT22;7693;49.266;7.104;2023-07-13T03:36:55;15.40;99.70
15184;DHT22;7693;49.266;7.104;2023-07-13T03:39:21;15.30;99.80
15184;DHT22;7693;49.266;7.104;2023-07-13T03:41:47;15.30;99.70
15184;DHT22;7693;49.266;7.104;2023-07-13T03:44:13;15.30;99.90
15184;DHT22;7693;49.266;7.104;2023-07-13T03:46:39;15.30;99.90
15184;DHT22;7693;49.266;7.104;2023-07-13T03:49:05;15.30;99.90
15184;DHT22;7693;49.266;7.104;2023-07-13T03:51:31;15.30;99.90
15184;DHT22;7693;49.266;7.104;2023-07-13T03:53:56;15.30;99.90
15184;DHT22;7693;49.266;7.104;2023-07-13T03:56:23;15.20;99.90
15184;DHT22;7693;49.266;7.104;2023-07-13T03:58:49;15.20;99.90
15184;DHT22;7693;49.266;7.104;2023-07-13T04:01:17;15.30;99.90
15184;DHT22;7693;49.266;7.104;2023-07-13T04:03:43;15.30;99.90
15184;DHT22;7693;49.266;7.104;2023-07-13T04:06:16;15.30;99.90
15184;DHT22;7693;49.266;7.104;2023-07-13T04:08:47;15.30;99.90
15184;DHT22;7693;49.266;7.104;2023-07-13T04:11:14;15.40;99.90
15184;DHT22;7693;49.266;7.104;2023-07-13T04:13:39;15.40;99.90
15184;DHT22;7693;49.266;7.104;2023-07-13T04:16:05;15.40;99.90
15184;DHT22;7693;49.266;7.104;2023-07-13T04:18:30;15.40;99.90
15184;DHT22;7693;49.266;7.104;2023-07-13T04:20:56;15.40;99.90
15184;DHT22;7693;49.266;7.104;2023-07-13T04:23:22;15.40;99.90
15184;DHT22;7693;49.266;7.104;2023-07-13T04:25:48;15.40;99.90
15184;DHT22;7693;49.266;7.104;2023-07-13T04:28:15;15.40;99.90
15184;DHT22;7693;49.266;7.104;2023-07-13T04:30:40;15.40;99.90
15184;DHT22;7693;49.266;7.104;2023-07-13T04:33:10;15.50;99.90
15184;DHT22;7693;49.266;7.104;2023-07-13T04:35:36;15.60;99.90
15184;DHT22;7693;49.266;7.104;2023-07-13T04:38:02;15.60;99.90
15184;DHT22;7693;49.266;7.104;2023-07-13T04:40:29;15.60;99.90
15184;DHT22;7693;49.266;7.104;2023-07-13T04:42:54;15.60;99.90
15184;DHT22;7693;49.266;7.104;2023-07-13T04:45:20;15.60;99.90
15184;DHT22;7693;49.266;7.104;2023-07-13T04:47:49;15.60;99.90
15184;DHT22;7693;49.266;7.104;2023-07-13T04:50:15;15.60;99.90
15184;DHT22;7693;49.266;7.104;2023-07-13T04:52:45;15.60;99.90
15184;DHT22;7693;49.266;7.104;2023-07-13T04:55:11;15.70;99.90
15184;DHT22;7693;49.266;7.104;2023-07-13T04:57:36;15.70;99.90
15184;DHT22;7693;49.266;7.104;2023-07-13T05:00:03;15.70;99.90
15184;DHT22;7693;49.266;7.104;2023-07-13T05:02:31;15.80;99.90
15184;DHT22;7693;49.266;7.104;2023-07-13T05:04:58;15.90;99.90
15184;DHT22;7693;49.266;7.104;2023-07-13T05:07:24;15.90;99.90
15184;DHT22;7693;49.266;7.104;2023-07-13T05:09:49;16.00;99.90
15184;DHT22;7693;49.266;7.104;2023-07-13T05:12:15;16.10;99.90
15184;DHT22;7693;49.266;7.104;2023-07-13T05:14:41;16.20;99.90
15184;DHT22;7693;49.266;7.104;2023-07-13T05:17:06;16.30;99.90
15184;DHT22;7693;49.266;7.104;2023-07-13T05:19:32;16.40;99.90
15184;DHT22;7693;49.266;7.104;2023-07-13T05:21:58;16.50;99.90
15184;DHT22;7693;49.266;7.104;2023-07-13T05:24:23;16.70;99.90
15184;DHT22;7693;49.266;7.104;2023-07-13T05:26:49;16.80;99.90
15184;DHT22;7693;49.266;7.104;2023-07-13T05:29:14;16.90;99.90
15184;DHT22;7693;49.266;7.104;2023-07-13T05:31:40;17.00;99.90
15184;DHT22;7693;49.266;7.104;2023-07-13T05:34:06;17.10;99.90
15184;DHT22;7693;49.266;7.104;2023-07-13T05:36:31;17.20;99.90
15184;DHT22;7693;49.266;7.104;2023-07-13T05:38:57;17.20;99.90
15184;DHT22;7693;49.266;7.104;2023-07-13T05:41:23;17.30;99.90
15184;DHT22;7693;49.266;7.104;2023-07-13T05:43:48;17.30;99.90
15184;DHT22;7693;49.266;7.104;2023-07-13T05:46:14;17.30;99.90
15184;DHT22;7693;49.266;7.104;2023-07-13T05:48:40;17.40;99.90
15184;DHT22;7693;49.266;7.104;2023-07-13T05:51:05;17.40;99.90
15184;DHT22;7693;49.266;7.104;2023-07-13T05:53:31;17.40;99.90
15184;DHT22;7693;49.266;7.104;2023-07-13T05:55:56;17.40;99.90
15184;DHT22;7693;49.266;7.104;2023-07-13T05:58:22;17.50;99.90
15184;DHT22;7693;49.266;7.104;2023-07-13T06:00:48;17.60;99.90
15184;DHT22;7693;49.266;7.104;2023-07-13T06:03:15;17.70;99.90
15184;DHT22;7693;49.266;7.104;2023-07-13T06:05:41;18.00;99.90
15184;DHT22;7693;49.266;7.104;2023-07-13T06:08:07;18.20;99.90
15184;DHT22;7693;49.266;7.104;2023-07-13T06:10:34;18.30;99.90
15184;DHT22;7693;49.266;7.104;2023-07-13T06:13:00;18.50;99.90
15184;DHT22;7693;49.266;7.104;2023-07-13T06:15:25;18.50;99.90
15184;DHT22;7693;49.266;7.104;2023-07-13T06:17:51;18.50;99.90
15184;DHT22;7693;49.266;7.104;2023-07-13T06:20:17;18.50;99.90
15184;DHT22;7693;49.266;7.104;2023-07-13T06:22:43;18.50;99.90
15184;DHT22;7693;49.266;7.104;2023-07-13T06:25:08;18.40;99.90
15184;DHT22;7693;49.266;7.104;2023-07-13T06:27:34;18.40;99.90
15184;DHT22;7693;49.266;7.104;2023-07-13T06:30:00;18.40;99.90
15184;DHT22;7693;49.266;7.104;2023-07-13T06:32:26;18.40;99.90
15184;DHT22;7693;49.266;7.104;2023-07-13T06:34:51;18.40;99.90
15184;DHT22;7693;49.266;7.104;2023-07-13T06:37:18;18.50;99.90
15184;DHT22;7693;49.266;7.104;2023-07-13T06:39:44;18.70;99.90
15184;DHT22;7693;49.266;7.104;2023-07-13T06:42:09;18.80;99.90
15184;DHT22;7693;49.266;7.104;2023-07-13T06:44:35;18.90;99.90
15184;DHT22;7693;49.266;7.104;2023-07-13T06:47:01;19.20;99.90
15184;DHT22;7693;49.266;7.104;2023-07-13T06:49:26;19.30;99.90
15184;DHT22;7693;49.266;7.104;2023-07-13T06:51:55;19.50;99.90
15184;DHT22;7693;49.266;7.104;2023-07-13T06:54:20;19.60;99.90
15184;DHT22;7693;49.266;7.104;2023-07-13T06:56:46;19.70;99.90
15184;DHT22;7693;49.266;7.104;2023-07-13T06:59:11;19.60;99.90
15184;DHT22;7693;49.266;7.104;2023-07-13T07:01:37;19.60;99.90
15184;DHT22;7693;49.266;7.104;2023-07-13T07:04:03;19.50;99.90
15184;DHT22;7693;49.266;7.104;2023-07-13T07:06:29;19.50;99.90
15184;DHT22;7693;49.266;7.104;2023-07-13T07:08:55;19.40;99.90
15184;DHT22;7693;49.266;7.104;2023-07-13T07:11:23;19.30;99.90
15184;DHT22;7693;49.266;7.104;2023-07-13T07:13:50;19.30;99.90
15184;DHT22;7693;49.266;7.104;2023-07-13T07:16:16;19.30;99.90
15184;DHT22;7693;49.266;7.104;2023-07-13T07:18:42;19.30;99.90
15184;DHT22;7693;49.266;7.104;2023-07-13T07:21:07;19.40;99.90
15184;DHT22;7693;49.266;7.104;2023-07-13T07:23:33;19.50;99.90
15184;DHT22;7693;49.266;7.104;2023-07-13T07:25:59;19.60;99.90
15184;DHT22;7693;49.266;7.104;2023-07-13T07:28:25;19.60;99.90
15184;DHT22;7693;49.266;7.104;2023-07-13T07:30:54;19.60;99.90
15184;DHT22;7693;49.266;7.104;2023-07-13T07:33:20;19.70;99.90
15184;DHT22;7693;49.266;7.104;2023-07-13T07:35:45;19.70;99.90
15184;DHT22;7693;49.266;7.104;2023-07-13T07:38:11;19.80;99.80
15184;DHT22;7693;49.266;7.104;2023-07-13T07:40:40;19.80;99.80
15184;DHT22;7693;49.266;7.104;2023-07-13T07:43:07;19.90;99.60
15184;DHT22;7693;49.266;7.104;2023-07-13T07:45:34;19.90;99.60
15184;DHT22;7693;49.266;7.104;2023-07-13T07:47:59;20.00;99.70
15184;DHT22;7693;49.266;7.104;2023-07-13T07:50:26;20.10;99.60
15184;DHT22;7693;49.266;7.104;2023-07-13T07:52:51;20.10;99.80
15184;DHT22;7693;49.266;7.104;2023-07-13T07:55:17;20.10;99.10
15184;DHT22;7693;49.266;7.104;2023-07-13T07:57:42;20.10;99.10
15184;DHT22;7693;49.266;7.104;2023-07-13T08:00:09;20.00;99.00
15184;DHT22;7693;49.266;7.104;2023-07-13T08:02:34;20.00;99.00
15184;DHT22;7693;49.266;7.104;2023-07-13T08:05:00;20.10;99.10
15184;DHT22;7693;49.266;7.104;2023-07-13T08:07:26;20.10;99.10
15184;DHT22;7693;49.266;7.104;2023-07-13T08:09:53;20.20;99.00
15184;DHT22;7693;49.266;7.104;2023-07-13T08:12:18;20.20;98.70
15184;DHT22;7693;49.266;7.104;2023-07-13T08:14:44;20.20;98.80
15184;DHT22;7693;49.266;7.104;2023-07-13T08:17:10;20.20;99.00
15184;DHT22;7693;49.266;7.104;2023-07-13T08:19:35;20.30;98.90
15184;DHT22;7693;49.266;7.104;2023-07-13T08:22:01;20.40;98.80
15184;DHT22;7693;49.266;7.104;2023-07-13T08:24:26;20.40;98.60
15184;DHT22;7693;49.266;7.104;2023-07-13T08:26:52;20.50;98.50
15184;DHT22;7693;49.266;7.104;2023-07-13T08:29:18;20.50;98.70
15184;DHT22;7693;49.266;7.104;2023-07-13T08:31:43;20.60;98.60
15184;DHT22;7693;49.266;7.104;2023-07-13T08:34:10;20.70;98.70
15184;DHT22;7693;49.266;7.104;2023-07-13T08:36:36;20.80;98.60
15184;DHT22;7693;49.266;7.104;2023-07-13T08:39:01;20.90;98.60
15184;DHT22;7693;49.266;7.104;2023-07-13T08:41:27;21.10;98.60
15184;DHT22;7693;49.266;7.104;2023-07-13T08:43:58;21.20;98.30
15184;DHT22;7693;49.266;7.104;2023-07-13T08:46:40;21.30;98.20
15184;DHT22;7693;49.266;7.104;2023-07-13T08:49:15;21.50;98.40
15184;DHT22;7693;49.266;7.104;2023-07-13T08:51:44;21.60;98.10
15184;DHT22;7693;49.266;7.104;2023-07-13T08:56:54;21.70;97.60
15184;DHT22;7693;49.266;7.104;2023-07-13T08:59:24;21.80;97.10
15184;DHT22;7693;49.266;7.104;2023-07-13T09:01:54;21.60;96.80
15184;DHT22;7693;49.266;7.104;2023-07-13T09:04:25;21.60;96.70
15184;DHT22;7693;49.266;7.104;2023-07-13T09:15:02;21.60;96.80
15184;DHT22;7693;49.266;7.104;2023-07-13T09:17:40;21.60;96.70
15184;DHT22;7693;49.266;7.104;2023-07-13T09:20:34;21.70;97.00
15184;DHT22;7693;49.266;7.104;2023-07-13T09:23:03;21.90;96.90
15184;DHT22;7693;49.266;7.104;2023-07-13T09:25:37;22.00;96.80
15184;DHT22;7693;49.266;7.104;2023-07-13T09:28:11;22.10;96.70
15184;DHT22;7693;49.266;7.104;2023-07-13T09:31:04;22.20;96.30
15184;DHT22;7693;49.266;7.104;2023-07-13T09:33:31;22.30;96.10
15184;DHT22;7693;49.266;7.104;2023-07-13T09:35:57;22.30;96.10
15184;DHT22;7693;49.266;7.104;2023-07-13T09:38:26;22.40;95.60
15184;DHT22;7693;49.266;7.104;2023-07-13T09:41:14;22.50;95.50
15184;DHT22;7693;49.266;7.104;2023-07-13T09:44:11;22.60;95.30
15184;DHT22;7693;49.266;7.104;2023-07-13T09:46:38;22.60;95.70
15184;DHT22;7693;49.266;7.104;2023-07-13T09:49:04;22.80;95.30
15184;DHT22;7693;49.266;7.104;2023-07-13T09:51:30;22.80;94.90
15184;DHT22;7693;49.266;7.104;2023-07-13T09:53:55;22.90;94.90
15184;DHT22;7693;49.266;7.104;2023-07-13T13:23:30;24.00;82.60
15184;DHT22;7693;49.266;7.104;2023-07-13T13:25:55;24.00;82.50
15184;DHT22;7693;49.266;7.104;2023-07-13T13:28:21;24.00;82.60
15184;DHT22;7693;49.266;7.104;2023-07-13T13:30:50;24.10;83.40
15184;DHT22;7693;49.266;7.104;2023-07-13T13:33:18;24.30;83.40
15184;DHT22;7693;49.266;7.104;2023-07-13T13:35:47;24.60;83.70
15184;DHT22;7693;49.266;7.104;2023-07-13T13:38:15;24.80;82.80
15184;DHT22;7693;49.266;7.104;2023-07-13T13:40:43;24.80;81.80
15184;DHT22;7693;49.266;7.104;2023-07-13T13:43:15;24.80;81.80
15184;DHT22;7693;49.266;7.104;2023-07-13T13:45:42;24.80;81.40
15184;DHT22;7693;49.266;7.104;2023-07-13T13:48:14;24.70;80.40
15184;DHT22;7693;49.266;7.104;2023-07-13T13:50:41;24.50;80.40
15184;DHT22;7693;49.266;7.104;2023-07-13T13:53:10;24.30;80.30
15184;DHT22;7693;49.266;7.104;2023-07-13T13:55:36;24.30;80.90
15184;DHT22;7693;49.266;7.104;2023-07-13T13:58:01;24.20;80.60
15184;DHT22;7693;49.266;7.104;2023-07-13T14:00:27;24.10;81.10
15184;DHT22;7693;49.266;7.104;2023-07-13T14:02:53;24.10;81.50
15184;DHT22;7693;49.266;7.104;2023-07-13T14:05:25;24.00;80.90
15184;DHT22;7693;49.266;7.104;2023-07-13T14:07:55;24.00;81.90
15184;DHT22;7693;49.266;7.104;2023-07-13T14:10:22;24.00;81.30
15184;DHT22;7693;49.266;7.104;2023-07-13T14:12:51;24.10;81.60
15184;DHT22;7693;49.266;7.104;2023-07-13T14:15:26;24.20;81.60
15184;DHT22;7693;49.266;7.104;2023-07-13T14:17:52;24.30;81.60
15184;DHT22;7693;49.266;7.104;2023-07-13T14:20:20;24.40;81.50
15184;DHT22;7693;49.266;7.104;2023-07-13T14:22:48;24.60;81.90
15184;DHT22;7693;49.266;7.104;2023-07-13T14:25:16;24.70;80.40
15184;DHT22;7693;49.266;7.104;2023-07-13T14:27:43;24.80;80.00
15184;DHT22;7693;49.266;7.104;2023-07-13T14:30:20;24.80;80.30
15184;DHT22;7693;49.266;7.104;2023-07-13T14:32:47;24.80;79.00
15184;DHT22;7693;49.266;7.104;2023-07-13T14:35:15;24.90;79.70
15184;DHT22;7693;49.266;7.104;2023-07-13T14:37:42;25.00;78.70
15184;DHT22;7693;49.266;7.104;2023-07-13T14:40:36;24.80;78.30
15184;DHT22;7693;49.266;7.104;2023-07-13T14:43:01;24.70;78.50
15184;DHT22;7693;49.266;7.104;2023-07-13T14:45:28;24.70;79.10
15184;DHT22;7693;49.266;7.104;2023-07-13T14:47:55;24.80;79.90
15184;DHT22;7693;49.266;7.104;2023-07-13T14:50:28;25.10;79.80
15184;DHT22;7693;49.266;7.104;2023-07-13T14:52:55;25.40;79.10
15184;DHT22;7693;49.266;7.104;2023-07-13T14:55:21;25.70;79.50
15184;DHT22;7693;49.266;7.104;2023-07-13T14:57:47;25.80;78.40
15184;DHT22;7693;49.266;7.104;2023-07-13T15:00:19;25.70;76.30
15184;DHT22;7693;49.266;7.104;2023-07-13T15:02:47;25.30;75.50
15184;DHT22;7693;49.266;7.104;2023-07-13T15:05:17;25.10;75.90
15184;DHT22;7693;49.266;7.104;2023-07-13T15:07:43;24.90;75.30
15184;DHT22;7693;49.266;7.104;2023-07-13T15:10:19;24.70;76.20
15184;DHT22;7693;49.266;7.104;2023-07-13T15:12:46;24.70;76.90
15184;DHT22;7693;49.266;7.104;2023-07-13T15:15:12;24.70;78.30
15184;DHT22;7693;49.266;7.104;2023-07-13T15:17:41;24.80;76.90
15184;DHT22;7693;49.266;7.104;2023-07-13T15:20:32;24.90;77.10
15184;DHT22;7693;49.266;7.104;2023-07-13T15:22:58;24.90;76.40
15184;DHT22;7693;49.266;7.104;2023-07-13T15:25:27;24.80;76.30
15184;DHT22;7693;49.266;7.104;2023-07-13T15:27:54;24.70;76.20
15184;DHT22;7693;49.266;7.104;2023-07-13T15:30:20;24.70;76.80
15184;DHT22;7693;49.266;7.104;2023-07-13T15:32:47;24.70;75.90
15184;DHT22;7693;49.266;7.104;2023-07-13T15:35:21;24.50;76.20
15184;DHT22;7693;49.266;7.104;2023-07-13T15:37:51;24.50;76.40
15184;DHT22;7693;49.266;7.104;2023-07-13T15:40:17;24.50;76.40
15184;DHT22;7693;49.266;7.104;2023-07-13T15:42:45;24.50;76.90
15184;DHT22;7693;49.266;7.104;2023-07-13T15:45:22;24.50;76.40
15184;DHT22;7693;49.266;7.104;2023-07-13T15:47:50;24.50;76.20
15184;DHT22;7693;49.266;7.104;2023-07-13T15:50:22;24.40;75.60
15184;DHT22;7693;49.266;7.104;2023-07-13T15:52:50;24.30;75.60
15184;DHT22;7693;49.266;7.104;2023-07-13T15:55:17;24.30;76.20
15184;DHT22;7693;49.266;7.104;2023-07-13T15:57:46;24.30;76.70
15184;DHT22;7693;49.266;7.104;2023-07-13T16:00:25;24.30;77.20
15184;DHT22;7693;49.266;7.104;2023-07-13T16:02:51;24.40;76.90
15184;DHT22;7693;49.266;7.104;2023-07-13T16:05:18;24.40;75.40
15184;DHT22;7693;49.266;7.104;2023-07-13T16:07:49;24.30;75.70
15184;DHT22;7693;49.266;7.104;2023-07-13T16:10:17;24.20;75.70
15184;DHT22;7693;49.266;7.104;2023-07-13T16:12:43;24.20;76.50
15184;DHT22;7693;49.266;7.104;2023-07-13T16:15:18;24.30;76.50
15184;DHT22;7693;49.266;7.104;2023-07-13T16:17:45;24.30;76.30
15184;DHT22;7693;49.266;7.104;2023-07-13T16:20:12;24.30;76.30
15184;DHT22;7693;49.266;7.104;2023-07-13T16:22:39;24.30;75.90
15184;DHT22;7693;49.266;7.104;2023-07-13T16:25:17;24.30;76.00
15184;DHT22;7693;49.266;7.104;2023-07-13T16:27:47;24.20;75.60
15184;DHT22;7693;49.266;7.104;2023-07-13T16:30:23;24.20;75.80
15184;DHT22;7693;49.266;7.104;2023-07-13T16:32:50;24.30;75.70
15184;DHT22;7693;49.266;7.104;2023-07-13T16:35:21;24.30;75.70
15184;DHT22;7693;49.266;7.104;2023-07-13T16:37:47;24.30;76.20
15184;DHT22;7693;49.266;7.104;2023-07-13T16:40:26;24.30;76.60
15184;DHT22;7693;49.266;7.104;2023-07-13T16:42:56;24.30;75.00
15184;DHT22;7693;49.266;7.104;2023-07-13T16:45:30;24.20;75.20
15184;DHT22;7693;49.266;7.104;2023-07-13T16:48:01;24.20;75.10
15184;DHT22;7693;49.266;7.104;2023-07-13T16:50:30;24.20;75.00
15184;DHT22;7693;49.266;7.104;2023-07-13T16:52:56;24.10;75.00
15184;DHT22;7693;49.266;7.104;2023-07-13T16:55:23;24.10;75.50
15184;DHT22;7693;49.266;7.104;2023-07-13T16:57:58;24.10;75.40
15184;DHT22;7693;49.266;7.104;2023-07-13T17:00:27;24.10;75.10
15184;DHT22;7693;49.266;7.104;2023-07-13T17:03:02;24.10;75.20
15184;DHT22;7693;49.266;7.104;2023-07-13T17:05:30;24.10;75.20
15184;DHT22;7693;49.266;7.104;2023-07-13T17:07:58;24.00;74.90
15184;DHT22;7693;49.266;7.104;2023-07-13T17:10:24;24.00;75.30
15184;DHT22;7693;49.266;7.104;2023-07-13T17:12:54;24.00;75.90
15184;DHT22;7693;49.266;7.104;2023-07-13T17:15:21;24.20;75.80
15184;DHT22;7693;49.266;7.104;2023-07-13T17:17:48;24.30;76.30
15184;DHT22;7693;49.266;7.104;2023-07-13T17:22:41;24.30;75.00
15184;DHT22;7693;49.266;7.104;2023-07-13T17:25:12;24.10;74.40
15184;DHT22;7693;49.266;7.104;2023-07-13T17:27:38;24.00;74.60
15184;DHT22;7693;49.266;7.104;2023-07-13T17:30:05;24.00;75.10
15184;DHT22;7693;49.266;7.104;2023-07-13T17:32:32;24.00;75.30
15184;DHT22;7693;49.266;7.104;2023-07-13T17:34:59;23.90;75.40
15184;DHT22;7693;49.266;7.104;2023-07-13T17:37:24;23.90;75.20
15184;DHT22;7693;49.266;7.104;2023-07-13T17:39:51;23.90;75.00
15184;DHT22;7693;49.266;7.104;2023-07-13T17:42:16;23.90;75.40
15184;DHT22;7693;49.266;7.104;2023-07-13T17:44:42;23.90;75.30
15184;DHT22;7693;49.266;7.104;2023-07-13T17:47:34;24.00;75.90
15184;DHT22;7693;49.266;7.104;2023-07-13T17:50:00;24.30;78.30
15184;DHT22;7693;49.266;7.104;2023-07-13T17:52:26;24.50;78.40
15184;DHT22;7693;49.266;7.104;2023-07-13T17:54:54;24.50;76.90
15184;DHT22;7693;49.266;7.104;2023-07-13T17:57:19;24.40;75.40
15184;DHT22;7693;49.266;7.104;2023-07-13T17:59:45;24.20;74.90
15184;DHT22;7693;49.266;7.104;2023-07-13T18:02:19;24.00;75.00
15184;DHT22;7693;49.266;7.104;2023-07-13T18:04:47;23.90;75.00
15184;DHT22;7693;49.266;7.104;2023-07-13T18:07:12;23.70;75.00
15184;DHT22;7693;49.266;7.104;2023-07-13T18:09:42;23.70;75.30
15184;DHT22;7693;49.266;7.104;2023-07-13T18:12:11;23.60;75.50
15184;DHT22;7693;49.266;7.104;2023-07-13T18:14:37;23.50;75.50
15184;DHT22;7693;49.266;7.104;2023-07-13T18:17:03;23.40;75.60
15184;DHT22;7693;49.266;7.104;2023-07-13T18:19:39;23.40;75.50
15184;DHT22;7693;49.266;7.104;2023-07-13T18:22:11;23.40;75.80
15184;DHT22;7693;49.266;7.104;2023-07-13T18:24:37;23.30;75.70
15184;DHT22;7693;49.266;7.104;2023-07-13T18:27:03;23.30;76.00
15184;DHT22;7693;49.266;7.104;2023-07-13T18:29:30;23.20;75.60
15184;DHT22;7693;49.266;7.104;2023-07-13T18:31:55;23.10;75.80
15184;DHT22;7693;49.266;7.104;2023-07-13T18:34:22;23.10;75.80
15184;DHT22;7693;49.266;7.104;2023-07-13T18:36:49;23.00;75.90
15184;DHT22;7693;49.266;7.104;2023-07-13T18:39:15;23.00;76.00
15184;DHT22;7693;49.266;7.104;2023-07-13T18:41:44;22.90;75.90
15184;DHT22;7693;49.266;7.104;2023-07-13T18:44:10;22.90;76.20
15184;DHT22;7693;49.266;7.104;2023-07-13T18:46:36;22.90;76.20
15184;DHT22;7693;49.266;7.104;2023-07-13T18:49:03;22.90;76.40
15184;DHT22;7693;49.266;7.104;2023-07-13T18:51:29;22.80;76.50
15184;DHT22;7693;49.266;7.104;2023-07-13T18:53:54;22.70;76.40
15184;DHT22;7693;49.266;7.104;2023-07-13T18:56:21;22.70;76.50
15184;DHT22;7693;49.266;7.104;2023-07-13T18:58:47;22.60;76.50
15184;DHT22;7693;49.266;7.104;2023-07-13T19:01:20;22.60;76.60
15184;DHT22;7693;49.266;7.104;2023-07-13T19:03:46;22.60;76.70
15184;DHT22;7693;49.266;7.104;2023-07-13T19:06:12;22.50;76.90
15184;DHT22;7693;49.266;7.104;2023-07-13T19:08:41;22.50;77.10
15184;DHT22;7693;49.266;7.104;2023-07-13T19:11:14;22.40;77.90
15184;DHT22;7693;49.266;7.104;2023-07-13T19:13:41;22.40;77.20
15184;DHT22;7693;49.266;7.104;2023-07-13T19:16:10;22.30;77.20
15184;DHT22;7693;49.266;7.104;2023-07-13T19:18:36;22.30;77.30
15184;DHT22;7693;49.266;7.104;2023-07-13T19:21:23;22.20;77.40
15184;DHT22;7693;49.266;7.104;2023-07-13T19:23:50;22.10;78.20
15184;DHT22;7693;49.266;7.104;2023-07-13T19:26:25;22.00;77.70
15184;DHT22;7693;49.266;7.104;2023-07-13T19:28:56;21.90;78.00
15184;DHT22;7693;49.266;7.104;2023-07-13T19:31:31;21.80;78.30
15184;DHT22;7693;49.266;7.104;2023-07-13T19:34:17;21.70;78.50